sensor_id;sensor_type;location;lat;lon;timestamp;P1;durP1;ratioP1;P2;durP2;ratioP2
8151;SDS011;4117;53.622;9.958;2024-02-15T00:00:51;25.17;;;14.10;;
8151;SDS011;4117;53.622;9.958;2024-02-15T00:03:18;25.20;;;14.13;;
8151;SDS011;4117;53.622;9.958;2024-02-15T00:05:46;22.73;;;13.13;;
8151;SDS011;4117;53.622;9.958;2024-02-15T00:08:13;18.53;;;12.03;;
8151;SDS011;4117;53.622;9.958;2024-02-15T00:10:42;20.17;;;12.47;;
8151;SDS011;4117;53.622;9.958;2024-02-15T00:13:11;21.60;;;12.27;;
8151;SDS011;4117;53.622;9.958;2024-02-15T00:15:38;21.97;;;12.07;;
8151;SDS011;4117;53.622;9.958;2024-02-15T00:18:05;20.23;;;12.67;;
8151;SDS011;4117;53.622;9.958;2024-02-15T00:20:33;19.00;;;12.53;;
8151;SDS011;4117;53.622;9.958;2024-02-15T00:23:00;17.07;;;12.00;;
8151;SDS011;4117;53.622;9.958;2024-02-15T00:25:26;23.10;;;12.63;;
8151;SDS011;4117;53.622;9.958;2024-02-15T00:27:55;19.50;;;12.73;;
8151;SDS011;4117;53.622;9.958;2024-02-15T00:30:22;21.97;;;13.17;;
8151;SDS011;4117;53.622;9.958;2024-02-15T00:32:49;20.07;;;12.53;;
8151;SDS011;4117;53.622;9.958;2024-02-15T00:35:16;20.80;;;12.70;;
8151;SDS011;4117;53.622;9.958;2024-02-15T00:37:43;17.90;;;13.07;;
8151;SDS011;4117;53.622;9.958;2024-02-15T00:40:11;19.57;;;13.20;;
8151;SDS011;4117;53.622;9.958;2024-02-15T00:42:38;17.83;;;12.97;;
8151;SDS011;4117;53.622;9.958;2024-02-15T00:45:07;19.90;;;13.90;;
8151;SDS011;4117;53.622;9.958;2024-02-15T00:47:34;23.10;;;14.53;;
8151;SDS011;4117;53.622;9.958;2024-02-15T00:50:03;22.30;;;14.67;;
8151;SDS011;4117;53.622;9.958;2024-02-15T00:52:30;21.73;;;14.43;;
8151;SDS011;4117;53.622;9.958;2024-02-15T00:54:57;22.50;;;14.93;;
8151;SDS011;4117;53.622;9.958;2024-02-15T00:57:24;25.00;;;16.20;;
8151;SDS011;4117;53.622;9.958;2024-02-15T00:59:51;20.93;;;15.63;;
8151;SDS011;4117;53.622;9.958;2024-02-15T01:02:20;22.63;;;15.73;;
8151;SDS011;4117;53.622;9.958;2024-02-15T01:04:46;25.93;;;16.43;;
8151;SDS011;4117;53.622;9.958;2024-02-15T01:07:14;26.73;;;16.33;;
8151;SDS011;4117;53.622;9.958;2024-02-15T01:09:41;23.13;;;14.90;;
8151;SDS011;4117;53.622;9.958;2024-02-15T01:12:08;23.77;;;15.97;;
8151;SDS011;4117;53.622;9.958;2024-02-15T01:14:35;26.50;;;15.97;;
8151;SDS011;4117;53.622;9.958;2024-02-15T01:17:02;26.03;;;16.53;;
8151;SDS011;4117;53.622;9.958;2024-02-15T01:19:30;26.03;;;17.10;;
8151;SDS011;4117;53.622;9.958;2024-02-15T01:21:57;26.87;;;16.67;;
8151;SDS011;4117;53.622;9.958;2024-02-15T01:24:24;26.63;;;16.43;;
8151;SDS011;4117;53.622;9.958;2024-02-15T01:26:51;25.63;;;16.97;;
8151;SDS011;4117;53.622;9.958;2024-02-15T01:29:19;23.73;;;16.47;;
8151;SDS011;4117;53.622;9.958;2024-02-15T01:31:46;29.43;;;16.80;;
8151;SDS011;4117;53.622;9.958;2024-02-15T01:34:13;29.77;;;17.67;;
8151;SDS011;4117;53.622;9.958;2024-02-15T01:36:42;25.90;;;17.53;;
8151;SDS011;4117;53.622;9.958;2024-02-15T01:39:09;35.93;;;18.37;;
8151;SDS011;4117;53.622;9.958;2024-02-15T01:41:36;24.77;;;16.63;;
8151;SDS011;4117;53.622;9.958;2024-02-15T01:44:03;24.00;;;17.23;;
8151;SDS011;4117;53.622;9.958;2024-02-15T01:46:31;26.30;;;17.70;;
8151;SDS011;4117;53.622;9.958;2024-02-15T01:48:58;28.13;;;17.77;;
8151;SDS011;4117;53.622;9.958;2024-02-15T01:51:25;25.30;;;17.97;;
8151;SDS011;4117;53.622;9.958;2024-02-15T01:53:54;28.17;;;18.37;;
8151;SDS011;4117;53.622;9.958;2024-02-15T01:56:21;31.07;;;19.30;;
8151;SDS011;4117;53.622;9.958;2024-02-15T01:58:50;33.83;;;19.07;;
8151;SDS011;4117;53.622;9.958;2024-02-15T02:01:17;29.70;;;19.37;;
8151;SDS011;4117;53.622;9.958;2024-02-15T02:03:45;28.87;;;18.03;;
8151;SDS011;4117;53.622;9.958;2024-02-15T02:06:12;31.10;;;19.03;;
8151;SDS011;4117;53.622;9.958;2024-02-15T02:08:40;28.23;;;18.43;;
8151;SDS011;4117;53.622;9.958;2024-02-15T02:11:08;30.63;;;18.73;;
8151;SDS011;4117;53.622;9.958;2024-02-15T02:13:35;29.30;;;18.80;;
8151;SDS011;4117;53.622;9.958;2024-02-15T02:16:02;31.73;;;19.47;;
8151;SDS011;4117;53.622;9.958;2024-02-15T02:18:29;31.83;;;19.10;;
8151;SDS011;4117;53.622;9.958;2024-02-15T02:20:56;23.70;;;17.50;;
8151;SDS011;4117;53.622;9.958;2024-02-15T02:23:25;28.40;;;17.17;;
8151;SDS011;4117;53.622;9.958;2024-02-15T02:25:53;27.87;;;18.03;;
8151;SDS011;4117;53.622;9.958;2024-02-15T02:28:21;31.17;;;18.30;;
8151;SDS011;4117;53.622;9.958;2024-02-15T02:30:48;28.53;;;17.60;;
8151;SDS011;4117;53.622;9.958;2024-02-15T02:33:15;28.33;;;18.07;;
8151;SDS011;4117;53.622;9.958;2024-02-15T02:35:44;24.90;;;17.07;;
8151;SDS011;4117;53.622;9.958;2024-02-15T02:38:11;29.07;;;17.37;;
8151;SDS011;4117;53.622;9.958;2024-02-15T02:40:39;25.13;;;16.90;;
8151;SDS011;4117;53.622;9.958;2024-02-15T02:43:08;26.23;;;17.13;;
8151;SDS011;4117;53.622;9.958;2024-02-15T02:45:35;24.80;;;16.33;;
8151;SDS011;4117;53.622;9.958;2024-02-15T02:48:02;28.43;;;16.77;;
8151;SDS011;4117;53.622;9.958;2024-02-15T02:50:29;26.53;;;15.97;;
8151;SDS011;4117;53.622;9.958;2024-02-15T02:52:57;24.63;;;16.57;;
8151;SDS011;4117;53.622;9.958;2024-02-15T02:55:24;26.33;;;16.33;;
8151;SDS011;4117;53.622;9.958;2024-02-15T02:57:52;23.77;;;14.87;;
8151;SDS011;4117;53.622;9.958;2024-02-15T03:00:21;27.17;;;15.07;;
8151;SDS011;4117;53.622;9.958;2024-02-15T03:02:48;21.00;;;14.80;;
8151;SDS011;4117;53.622;9.958;2024-02-15T03:05:15;22.33;;;15.13;;
8151;SDS011;4117;53.622;9.958;2024-02-15T03:07:45;25.23;;;15.00;;
8151;SDS011;4117;53.622;9.958;2024-02-15T03:10:12;25.67;;;15.90;;
8151;SDS011;4117;53.622;9.958;2024-02-15T03:12:40;25.00;;;15.23;;
8151;SDS011;4117;53.622;9.958;2024-02-15T03:15:08;23.83;;;16.00;;
8151;SDS011;4117;53.622;9.958;2024-02-15T03:17:39;25.57;;;16.33;;
8151;SDS011;4117;53.622;9.958;2024-02-15T03:20:06;32.27;;;16.10;;
8151;SDS011;4117;53.622;9.958;2024-02-15T03:22:37;24.53;;;16.70;;
8151;SDS011;4117;53.622;9.958;2024-02-15T03:25:04;25.20;;;16.07;;
8151;SDS011;4117;53.622;9.958;2024-02-15T03:27:33;26.10;;;15.90;;
8151;SDS011;4117;53.622;9.958;2024-02-15T03:30:00;24.23;;;15.70;;
8151;SDS011;4117;53.622;9.958;2024-02-15T03:32:29;27.13;;;16.43;;
8151;SDS011;4117;53.622;9.958;2024-02-15T03:34:57;22.03;;;14.83;;
8151;SDS011;4117;53.622;9.958;2024-02-15T03:37:26;21.30;;;14.33;;
8151;SDS011;4117;53.622;9.958;2024-02-15T03:39:53;22.83;;;15.07;;
8151;SDS011;4117;53.622;9.958;2024-02-15T03:42:20;23.93;;;15.53;;
8151;SDS011;4117;53.622;9.958;2024-02-15T03:44:47;25.53;;;15.20;;
8151;SDS011;4117;53.622;9.958;2024-02-15T03:47:14;21.90;;;14.80;;
8151;SDS011;4117;53.622;9.958;2024-02-15T03:49:40;23.27;;;13.47;;
8151;SDS011;4117;53.622;9.958;2024-02-15T03:52:09;28.17;;;15.27;;
8151;SDS011;4117;53.622;9.958;2024-02-15T03:54:36;25.63;;;15.03;;
8151;SDS011;4117;53.622;9.958;2024-02-15T03:57:03;26.63;;;16.13;;
8151;SDS011;4117;53.622;9.958;2024-02-15T03:59:31;29.47;;;15.67;;
8151;SDS011;4117;53.622;9.958;2024-02-15T04:02:00;30.73;;;15.97;;
8151;SDS011;4117;53.622;9.958;2024-02-15T04:04:28;29.43;;;15.63;;
8151;SDS011;4117;53.622;9.958;2024-02-15T04:06:55;31.67;;;16.07;;
8151;SDS011;4117;53.622;9.958;2024-02-15T04:09:24;33.87;;;17.07;;
8151;SDS011;4117;53.622;9.958;2024-02-15T04:11:51;28.47;;;16.10;;
8151;SDS011;4117;53.622;9.958;2024-02-15T04:14:18;32.73;;;17.50;;
8151;SDS011;4117;53.622;9.958;2024-02-15T04:16:45;32.63;;;16.80;;
8151;SDS011;4117;53.622;9.958;2024-02-15T04:19:12;31.40;;;17.33;;
8151;SDS011;4117;53.622;9.958;2024-02-15T04:21:40;34.97;;;15.87;;
8151;SDS011;4117;53.622;9.958;2024-02-15T04:24:09;29.40;;;16.40;;
8151;SDS011;4117;53.622;9.958;2024-02-15T04:26:38;33.27;;;16.90;;
8151;SDS011;4117;53.622;9.958;2024-02-15T04:29:05;27.87;;;16.13;;
8151;SDS011;4117;53.622;9.958;2024-02-15T04:31:33;27.50;;;17.03;;
8151;SDS011;4117;53.622;9.958;2024-02-15T04:34:04;32.33;;;16.43;;
8151;SDS011;4117;53.622;9.958;2024-02-15T04:36:31;31.23;;;16.47;;
8151;SDS011;4117;53.622;9.958;2024-02-15T04:38:59;31.90;;;16.50;;
8151;SDS011;4117;53.622;9.958;2024-02-15T04:41:27;30.50;;;16.63;;
8151;SDS011;4117;53.622;9.958;2024-02-15T04:43:56;27.90;;;16.03;;
8151;SDS011;4117;53.622;9.958;2024-02-15T04:46:23;30.30;;;16.70;;
8151;SDS011;4117;53.622;9.958;2024-02-15T04:48:51;32.27;;;17.27;;
8151;SDS011;4117;53.622;9.958;2024-02-15T04:51:18;35.00;;;17.43;;
8151;SDS011;4117;53.622;9.958;2024-02-15T04:53:46;34.37;;;17.63;;
8151;SDS011;4117;53.622;9.958;2024-02-15T04:56:14;33.27;;;16.80;;
8151;SDS011;4117;53.622;9.958;2024-02-15T04:58:42;33.03;;;17.67;;
8151;SDS011;4117;53.622;9.958;2024-02-15T05:01:14;35.27;;;17.33;;
8151;SDS011;4117;53.622;9.958;2024-02-15T05:03:42;36.07;;;17.60;;
8151;SDS011;4117;53.622;9.958;2024-02-15T05:06:09;36.23;;;18.07;;
8151;SDS011;4117;53.622;9.958;2024-02-15T05:08:37;33.43;;;18.00;;
8151;SDS011;4117;53.622;9.958;2024-02-15T05:11:07;40.77;;;18.20;;
8151;SDS011;4117;53.622;9.958;2024-02-15T05:13:40;36.97;;;17.83;;
8151;SDS011;4117;53.622;9.958;2024-02-15T05:16:07;34.13;;;17.50;;
8151;SDS011;4117;53.622;9.958;2024-02-15T05:18:35;32.63;;;17.67;;
8151;SDS011;4117;53.622;9.958;2024-02-15T05:21:03;32.27;;;16.43;;
8151;SDS011;4117;53.622;9.958;2024-02-15T05:23:34;33.87;;;17.63;;
8151;SDS011;4117;53.622;9.958;2024-02-15T05:26:01;37.50;;;18.40;;
8151;SDS011;4117;53.622;9.958;2024-02-15T05:28:29;37.93;;;17.97;;
8151;SDS011;4117;53.622;9.958;2024-02-15T05:31:10;32.57;;;17.20;;
8151;SDS011;4117;53.622;9.958;2024-02-15T05:33:40;34.70;;;17.17;;
8151;SDS011;4117;53.622;9.958;2024-02-15T05:36:09;39.57;;;19.00;;
8151;SDS011;4117;53.622;9.958;2024-02-15T05:38:36;34.67;;;18.10;;
8151;SDS011;4117;53.622;9.958;2024-02-15T05:41:03;35.60;;;17.63;;
8151;SDS011;4117;53.622;9.958;2024-02-15T05:43:32;31.50;;;17.63;;
8151;SDS011;4117;53.622;9.958;2024-02-15T05:46:01;36.97;;;18.40;;
8151;SDS011;4117;53.622;9.958;2024-02-15T05:48:28;34.53;;;18.27;;
8151;SDS011;4117;53.622;9.958;2024-02-15T05:50:57;37.57;;;18.57;;
8151;SDS011;4117;53.622;9.958;2024-02-15T05:53:24;39.10;;;19.00;;
8151;SDS011;4117;53.622;9.958;2024-02-15T05:55:51;36.47;;;17.33;;
8151;SDS011;4117;53.622;9.958;2024-02-15T05:58:18;36.97;;;18.40;;
8151;SDS011;4117;53.622;9.958;2024-02-15T06:00:46;34.27;;;17.83;;
8151;SDS011;4117;53.622;9.958;2024-02-15T06:03:15;33.33;;;17.40;;
8151;SDS011;4117;53.622;9.958;2024-02-15T06:05:44;35.93;;;18.10;;
8151;SDS011;4117;53.622;9.958;2024-02-15T06:08:13;35.23;;;17.73;;
8151;SDS011;4117;53.622;9.958;2024-02-15T06:10:40;36.90;;;17.27;;
8151;SDS011;4117;53.622;9.958;2024-02-15T06:13:07;39.93;;;18.97;;
8151;SDS011;4117;53.622;9.958;2024-02-15T06:15:35;36.93;;;17.57;;
8151;SDS011;4117;53.622;9.958;2024-02-15T06:18:02;34.97;;;17.83;;
8151;SDS011;4117;53.622;9.958;2024-02-15T06:20:34;35.63;;;18.63;;
8151;SDS011;4117;53.622;9.958;2024-02-15T06:23:01;42.47;;;19.37;;
8151;SDS011;4117;53.622;9.958;2024-02-15T06:25:31;29.53;;;17.37;;
8151;SDS011;4117;53.622;9.958;2024-02-15T06:27:58;38.30;;;18.30;;
8151;SDS011;4117;53.622;9.958;2024-02-15T06:30:27;37.47;;;18.20;;
8151;SDS011;4117;53.622;9.958;2024-02-15T06:33:12;32.23;;;18.77;;
8151;SDS011;4117;53.622;9.958;2024-02-15T06:36:04;38.53;;;19.13;;
8151;SDS011;4117;53.622;9.958;2024-02-15T06:38:49;38.83;;;20.53;;
8151;SDS011;4117;53.622;9.958;2024-02-15T06:41:35;37.17;;;19.23;;
8151;SDS011;4117;53.622;9.958;2024-02-15T06:44:01;41.23;;;20.80;;
8151;SDS011;4117;53.622;9.958;2024-02-15T06:46:29;39.23;;;20.50;;
8151;SDS011;4117;53.622;9.958;2024-02-15T06:48:56;39.27;;;19.83;;
8151;SDS011;4117;53.622;9.958;2024-02-15T06:51:23;43.57;;;20.23;;
8151;SDS011;4117;53.622;9.958;2024-02-15T06:53:50;45.53;;;21.57;;
8151;SDS011;4117;53.622;9.958;2024-02-15T06:56:20;44.03;;;21.77;;
8151;SDS011;4117;53.622;9.958;2024-02-15T06:58:49;44.67;;;20.53;;
8151;SDS011;4117;53.622;9.958;2024-02-15T07:01:16;46.60;;;21.87;;
8151;SDS011;4117;53.622;9.958;2024-02-15T07:03:45;44.70;;;21.77;;
8151;SDS011;4117;53.622;9.958;2024-02-15T07:06:12;49.87;;;22.33;;
8151;SDS011;4117;53.622;9.958;2024-02-15T07:08:40;50.33;;;22.43;;
8151;SDS011;4117;53.622;9.958;2024-02-15T07:11:07;40.00;;;20.47;;
8151;SDS011;4117;53.622;9.958;2024-02-15T07:13:35;45.20;;;21.20;;
8151;SDS011;4117;53.622;9.958;2024-02-15T07:16:05;44.37;;;20.93;;
8151;SDS011;4117;53.622;9.958;2024-02-15T07:18:33;50.50;;;21.70;;
8151;SDS011;4117;53.622;9.958;2024-02-15T07:21:00;38.43;;;20.83;;
8151;SDS011;4117;53.622;9.958;2024-02-15T07:23:29;45.13;;;19.63;;
8151;SDS011;4117;53.622;9.958;2024-02-15T07:25:56;44.30;;;20.70;;
8151;SDS011;4117;53.622;9.958;2024-02-15T07:28:23;41.77;;;18.80;;
8151;SDS011;4117;53.622;9.958;2024-02-15T07:30:51;40.07;;;19.37;;
8151;SDS011;4117;53.622;9.958;2024-02-15T07:33:20;33.37;;;17.30;;
8151;SDS011;4117;53.622;9.958;2024-02-15T07:35:48;38.37;;;18.17;;
8151;SDS011;4117;53.622;9.958;2024-02-15T07:38:16;40.57;;;18.77;;
8151;SDS011;4117;53.622;9.958;2024-02-15T07:40:43;34.77;;;18.03;;
8151;SDS011;4117;53.622;9.958;2024-02-15T07:43:10;36.77;;;17.67;;
8151;SDS011;4117;53.622;9.958;2024-02-15T07:45:37;34.60;;;16.73;;
8151;SDS011;4117;53.622;9.958;2024-02-15T07:48:04;32.17;;;15.67;;
8151;SDS011;4117;53.622;9.958;2024-02-15T07:50:33;36.97;;;16.90;;
8151;SDS011;4117;53.622;9.958;2024-02-15T07:53:02;39.07;;;17.67;;
8151;SDS011;4117;53.622;9.958;2024-02-15T07:55:30;30.67;;;15.70;;
8151;SDS011;4117;53.622;9.958;2024-02-15T07:57:57;27.97;;;14.83;;
8151;SDS011;4117;53.622;9.958;2024-02-15T08:00:26;29.27;;;14.83;;
8151;SDS011;4117;53.622;9.958;2024-02-15T08:02:53;35.53;;;16.03;;
8151;SDS011;4117;53.622;9.958;2024-02-15T08:05:20;36.33;;;16.37;;
8151;SDS011;4117;53.622;9.958;2024-02-15T08:07:48;31.53;;;15.97;;
8151;SDS011;4117;53.622;9.958;2024-02-15T08:10:15;32.43;;;15.30;;
8151;SDS011;4117;53.622;9.958;2024-02-15T08:12:43;39.17;;;16.63;;
8151;SDS011;4117;53.622;9.958;2024-02-15T08:15:11;35.17;;;16.13;;
8151;SDS011;4117;53.622;9.958;2024-02-15T08:17:39;36.20;;;16.50;;
8151;SDS011;4117;53.622;9.958;2024-02-15T08:20:07;31.50;;;17.50;;
8151;SDS011;4117;53.622;9.958;2024-02-15T08:22:36;37.07;;;17.20;;
8151;SDS011;4117;53.622;9.958;2024-02-15T08:25:06;38.23;;;17.60;;
8151;SDS011;4117;53.622;9.958;2024-02-15T08:27:36;33.43;;;17.33;;
8151;SDS011;4117;53.622;9.958;2024-02-15T08:30:06;32.80;;;17.43;;
8151;SDS011;4117;53.622;9.958;2024-02-15T08:32:35;34.97;;;17.33;;
8151;SDS011;4117;53.622;9.958;2024-02-15T08:35:07;33.13;;;17.90;;
8151;SDS011;4117;53.622;9.958;2024-02-15T08:37:36;35.00;;;17.53;;
8151;SDS011;4117;53.622;9.958;2024-02-15T08:40:04;32.47;;;17.43;;
8151;SDS011;4117;53.622;9.958;2024-02-15T08:42:38;33.13;;;17.37;;
8151;SDS011;4117;53.622;9.958;2024-02-15T08:45:06;33.23;;;16.33;;
8151;SDS011;4117;53.622;9.958;2024-02-15T08:47:35;33.07;;;16.30;;
8151;SDS011;4117;53.622;9.958;2024-02-15T08:50:04;35.90;;;17.63;;
8151;SDS011;4117;53.622;9.958;2024-02-15T08:52:34;35.83;;;16.27;;
8151;SDS011;4117;53.622;9.958;2024-02-15T08:55:03;36.23;;;16.67;;
8151;SDS011;4117;53.622;9.958;2024-02-15T08:57:33;25.93;;;14.73;;
8151;SDS011;4117;53.622;9.958;2024-02-15T09:00:01;25.47;;;14.67;;
8151;SDS011;4117;53.622;9.958;2024-02-15T09:02:34;27.00;;;14.73;;
8151;SDS011;4117;53.622;9.958;2024-02-15T09:05:01;26.50;;;13.73;;
8151;SDS011;4117;53.622;9.958;2024-02-15T09:07:28;27.10;;;13.70;;
8151;SDS011;4117;53.622;9.958;2024-02-15T09:09:56;22.80;;;12.53;;
8151;SDS011;4117;53.622;9.958;2024-02-15T09:12:28;20.50;;;11.60;;
8151;SDS011;4117;53.622;9.958;2024-02-15T09:15:02;19.50;;;11.63;;
8151;SDS011;4117;53.622;9.958;2024-02-15T09:17:29;19.70;;;11.90;;
8151;SDS011;4117;53.622;9.958;2024-02-15T09:19:57;20.90;;;11.43;;
8151;SDS011;4117;53.622;9.958;2024-02-15T09:22:25;18.37;;;11.33;;
8151;SDS011;4117;53.622;9.958;2024-02-15T09:24:52;18.60;;;10.97;;
8151;SDS011;4117;53.622;9.958;2024-02-15T09:27:19;23.57;;;11.20;;
8151;SDS011;4117;53.622;9.958;2024-02-15T09:29:48;23.67;;;12.37;;
8151;SDS011;4117;53.622;9.958;2024-02-15T09:32:16;22.10;;;12.87;;
8151;SDS011;4117;53.622;9.958;2024-02-15T09:34:43;22.87;;;11.57;;
8151;SDS011;4117;53.622;9.958;2024-02-15T09:37:10;22.93;;;12.10;;
8151;SDS011;4117;53.622;9.958;2024-02-15T09:39:38;20.43;;;12.53;;
8151;SDS011;4117;53.622;9.958;2024-02-15T09:42:05;22.20;;;12.77;;
8151;SDS011;4117;53.622;9.958;2024-02-15T09:44:32;22.87;;;12.10;;
8151;SDS011;4117;53.622;9.958;2024-02-15T09:47:03;21.70;;;12.40;;
8151;SDS011;4117;53.622;9.958;2024-02-15T09:49:33;21.17;;;12.63;;
8151;SDS011;4117;53.622;9.958;2024-02-15T09:52:04;20.00;;;12.03;;
8151;SDS011;4117;53.622;9.958;2024-02-15T09:54:36;16.97;;;10.87;;
8151;SDS011;4117;53.622;9.958;2024-02-15T09:57:06;20.90;;;12.00;;
8151;SDS011;4117;53.622;9.958;2024-02-15T09:59:34;17.83;;;11.53;;
8151;SDS011;4117;53.622;9.958;2024-02-15T10:02:03;22.50;;;11.57;;
8151;SDS011;4117;53.622;9.958;2024-02-15T10:04:34;18.90;;;11.57;;
8151;SDS011;4117;53.622;9.958;2024-02-15T10:07:05;20.00;;;11.57;;
8151;SDS011;4117;53.622;9.958;2024-02-15T10:09:55;18.27;;;12.33;;
8151;SDS011;4117;53.622;9.958;2024-02-15T10:12:50;19.00;;;12.07;;
8151;SDS011;4117;53.622;9.958;2024-02-15T10:15:39;17.20;;;11.40;;
8151;SDS011;4117;53.622;9.958;2024-02-15T10:18:24;16.40;;;12.10;;
8151;SDS011;4117;53.622;9.958;2024-02-15T10:21:08;15.97;;;12.07;;
8151;SDS011;4117;53.622;9.958;2024-02-15T10:23:36;18.33;;;11.67;;
8151;SDS011;4117;53.622;9.958;2024-02-15T10:29:04;20.13;;;13.30;;
8151;SDS011;4117;53.622;9.958;2024-02-15T10:34:20;25.13;;;14.67;;
8151;SDS011;4117;53.622;9.958;2024-02-15T10:36:48;27.23;;;14.70;;
8151;SDS011;4117;53.622;9.958;2024-02-15T10:39:15;26.67;;;14.00;;
8151;SDS011;4117;53.622;9.958;2024-02-15T10:41:48;24.07;;;14.80;;
8151;SDS011;4117;53.622;9.958;2024-02-15T10:44:17;22.03;;;15.10;;
8151;SDS011;4117;53.622;9.958;2024-02-15T10:46:45;24.10;;;14.97;;
8151;SDS011;4117;53.622;9.958;2024-02-15T10:49:16;24.00;;;14.30;;
8151;SDS011;4117;53.622;9.958;2024-02-15T10:51:50;31.03;;;15.83;;
8151;SDS011;4117;53.622;9.958;2024-02-15T10:54:24;29.97;;;15.17;;
8151;SDS011;4117;53.622;9.958;2024-02-15T10:57:13;28.20;;;15.37;;
8151;SDS011;4117;53.622;9.958;2024-02-15T10:59:48;27.47;;;16.40;;
8151;SDS011;4117;53.622;9.958;2024-02-15T11:02:32;26.57;;;15.23;;
8151;SDS011;4117;53.622;9.958;2024-02-15T11:05:05;27.37;;;16.50;;
8151;SDS011;4117;53.622;9.958;2024-02-15T11:07:36;29.17;;;16.10;;
8151;SDS011;4117;53.622;9.958;2024-02-15T11:10:04;28.17;;;17.00;;
8151;SDS011;4117;53.622;9.958;2024-02-15T11:12:35;30.43;;;17.53;;
8151;SDS011;4117;53.622;9.958;2024-02-15T11:15:08;29.07;;;16.93;;
8151;SDS011;4117;53.622;9.958;2024-02-15T11:17:44;28.27;;;17.53;;
8151;SDS011;4117;53.622;9.958;2024-02-15T11:23:32;23.07;;;17.00;;
8151;SDS011;4117;53.622;9.958;2024-02-15T11:26:47;30.43;;;18.60;;
8151;SDS011;4117;53.622;9.958;2024-02-15T11:35:04;28.43;;;19.07;;
8151;SDS011;4117;53.622;9.958;2024-02-15T11:37:51;28.63;;;18.80;;
8151;SDS011;4117;53.622;9.958;2024-02-15T11:40:22;29.03;;;18.63;;
8151;SDS011;4117;53.622;9.958;2024-02-15T11:42:51;31.27;;;19.13;;
8151;SDS011;4117;53.622;9.958;2024-02-15T11:45:19;27.67;;;19.00;;
8151;SDS011;4117;53.622;9.958;2024-02-15T11:47:47;26.20;;;18.23;;
8151;SDS011;4117;53.622;9.958;2024-02-15T11:50:15;28.60;;;19.93;;
8151;SDS011;4117;53.622;9.958;2024-02-15T11:52:43;26.07;;;19.20;;
8151;SDS011;4117;53.622;9.958;2024-02-15T11:55:11;26.33;;;19.50;;
8151;SDS011;4117;53.622;9.958;2024-02-15T11:57:40;28.73;;;19.93;;
8151;SDS011;4117;53.622;9.958;2024-02-15T12:00:19;26.97;;;18.20;;
8151;SDS011;4117;53.622;9.958;2024-02-15T12:03:07;24.83;;;18.53;;
8151;SDS011;4117;53.622;9.958;2024-02-15T12:05:51;23.90;;;18.43;;
8151;SDS011;4117;53.622;9.958;2024-02-15T12:08:36;21.83;;;18.00;;
8151;SDS011;4117;53.622;9.958;2024-02-15T12:11:21;24.30;;;17.97;;
8151;SDS011;4117;53.622;9.958;2024-02-15T12:14:06;23.30;;;18.37;;
8151;SDS011;4117;53.622;9.958;2024-02-15T12:16:59;22.23;;;18.10;;
8151;SDS011;4117;53.622;9.958;2024-02-15T12:19:44;24.27;;;17.50;;
8151;SDS011;4117;53.622;9.958;2024-02-15T12:22:13;24.50;;;17.20;;
8151;SDS011;4117;53.622;9.958;2024-02-15T12:24:41;21.13;;;15.57;;
8151;SDS011;4117;53.622;9.958;2024-02-15T12:27:08;19.07;;;14.47;;
8151;SDS011;4117;53.622;9.958;2024-02-15T12:29:36;20.67;;;14.10;;
8151;SDS011;4117;53.622;9.958;2024-02-15T12:32:03;18.87;;;14.27;;
8151;SDS011;4117;53.622;9.958;2024-02-15T12:34:30;16.50;;;13.47;;
8151;SDS011;4117;53.622;9.958;2024-02-15T12:37:06;20.03;;;13.53;;
8151;SDS011;4117;53.622;9.958;2024-02-15T12:39:34;15.67;;;12.57;;
8151;SDS011;4117;53.622;9.958;2024-02-15T12:42:02;17.63;;;12.57;;
8151;SDS011;4117;53.622;9.958;2024-02-15T12:44:29;15.10;;;12.27;;
8151;SDS011;4117;53.622;9.958;2024-02-15T12:47:00;15.93;;;12.03;;
8151;SDS011;4117;53.622;9.958;2024-02-15T12:49:29;14.03;;;10.53;;
8151;SDS011;4117;53.622;9.958;2024-02-15T12:55:09;10.93;;;9.30;;
8151;SDS011;4117;53.622;9.958;2024-02-15T12:57:37;10.83;;;9.40;;
8151;SDS011;4117;53.622;9.958;2024-02-15T13:00:07;11.87;;;8.93;;
8151;SDS011;4117;53.622;9.958;2024-02-15T13:02:40;10.70;;;9.00;;
8151;SDS011;4117;53.622;9.958;2024-02-15T13:05:08;9.13;;;7.67;;
8151;SDS011;4117;53.622;9.958;2024-02-15T13:07:35;11.23;;;8.57;;
8151;SDS011;4117;53.622;9.958;2024-02-15T13:10:03;8.90;;;7.90;;
8151;SDS011;4117;53.622;9.958;2024-02-15T13:12:32;10.57;;;7.97;;
8151;SDS011;4117;53.622;9.958;2024-02-15T13:15:01;9.73;;;7.40;;
8151;SDS011;4117;53.622;9.958;2024-02-15T13:17:30;9.80;;;7.27;;
8151;SDS011;4117;53.622;9.958;2024-02-15T13:20:00;10.17;;;7.50;;
8151;SDS011;4117;53.622;9.958;2024-02-15T13:22:35;10.27;;;7.80;;
8151;SDS011;4117;53.622;9.958;2024-02-15T13:25:04;10.30;;;6.80;;
8151;SDS011;4117;53.622;9.958;2024-02-15T13:27:32;7.87;;;6.97;;
8151;SDS011;4117;53.622;9.958;2024-02-15T13:30:00;8.87;;;6.97;;
8151;SDS011;4117;53.622;9.958;2024-02-15T13:32:26;8.10;;;6.87;;
8151;SDS011;4117;53.622;9.958;2024-02-15T13:34:54;9.23;;;7.23;;
8151;SDS011;4117;53.622;9.958;2024-02-15T13:37:24;11.40;;;6.80;;
8151;SDS011;4117;53.622;9.958;2024-02-15T13:39:51;11.90;;;7.33;;
8151;SDS011;4117;53.622;9.958;2024-02-15T13:42:18;8.40;;;7.03;;
8151;SDS011;4117;53.622;9.958;2024-02-15T13:44:45;8.23;;;6.97;;
8151;SDS011;4117;53.622;9.958;2024-02-15T13:47:13;9.67;;;7.67;;
8151;SDS011;4117;53.622;9.958;2024-02-15T13:49:41;9.53;;;7.50;;
8151;SDS011;4117;53.622;9.958;2024-02-15T13:52:08;13.40;;;7.93;;
8151;SDS011;4117;53.622;9.958;2024-02-15T13:54:37;10.93;;;7.83;;
8151;SDS011;4117;53.622;9.958;2024-02-15T13:57:04;9.37;;;7.80;;
8151;SDS011;4117;53.622;9.958;2024-02-15T13:59:32;11.80;;;7.63;;
8151;SDS011;4117;53.622;9.958;2024-02-15T14:01:59;11.50;;;8.13;;
8151;SDS011;4117;53.622;9.958;2024-02-15T14:04:28;15.13;;;8.37;;
8151;SDS011;4117;53.622;9.958;2024-02-15T14:06:57;14.63;;;7.93;;
8151;SDS011;4117;53.622;9.958;2024-02-15T14:09:25;11.67;;;8.57;;
8151;SDS011;4117;53.622;9.958;2024-02-15T14:11:54;11.37;;;8.40;;
8151;SDS011;4117;53.622;9.958;2024-02-15T14:14:21;13.00;;;8.87;;
8151;SDS011;4117;53.622;9.958;2024-02-15T14:16:48;13.70;;;8.20;;
8151;SDS011;4117;53.622;9.958;2024-02-15T14:19:15;13.43;;;9.03;;
8151;SDS011;4117;53.622;9.958;2024-02-15T14:21:42;15.03;;;8.90;;
8151;SDS011;4117;53.622;9.958;2024-02-15T14:24:10;12.53;;;8.80;;
8151;SDS011;4117;53.622;9.958;2024-02-15T14:26:38;11.30;;;8.60;;
8151;SDS011;4117;53.622;9.958;2024-02-15T14:29:06;15.07;;;8.37;;
8151;SDS011;4117;53.622;9.958;2024-02-15T14:31:34;10.50;;;8.30;;
8151;SDS011;4117;53.622;9.958;2024-02-15T14:34:19;11.43;;;7.43;;
8151;SDS011;4117;53.622;9.958;2024-02-15T14:36:46;11.13;;;7.50;;
8151;SDS011;4117;53.622;9.958;2024-02-15T14:39:13;13.27;;;7.40;;
8151;SDS011;4117;53.622;9.958;2024-02-15T14:41:40;12.23;;;8.20;;
8151;SDS011;4117;53.622;9.958;2024-02-15T14:44:09;12.10;;;7.73;;
8151;SDS011;4117;53.622;9.958;2024-02-15T14:46:38;11.17;;;8.10;;
8151;SDS011;4117;53.622;9.958;2024-02-15T14:49:05;8.07;;;6.90;;
8151;SDS011;4117;53.622;9.958;2024-02-15T14:51:33;16.20;;;8.17;;
8151;SDS011;4117;53.622;9.958;2024-02-15T14:54:02;12.60;;;8.40;;
8151;SDS011;4117;53.622;9.958;2024-02-15T14:56:29;10.97;;;7.87;;
8151;SDS011;4117;53.622;9.958;2024-02-15T14:58:58;10.27;;;8.23;;
8151;SDS011;4117;53.622;9.958;2024-02-15T15:01:27;12.37;;;7.90;;
8151;SDS011;4117;53.622;9.958;2024-02-15T15:03:55;11.97;;;7.90;;
8151;SDS011;4117;53.622;9.958;2024-02-15T15:06:23;9.43;;;7.33;;
8151;SDS011;4117;53.622;9.958;2024-02-15T15:09:08;8.87;;;7.97;;
8151;SDS011;4117;53.622;9.958;2024-02-15T15:11:53;12.63;;;7.67;;
8151;SDS011;4117;53.622;9.958;2024-02-15T15:14:38;12.33;;;7.80;;
8151;SDS011;4117;53.622;9.958;2024-02-15T15:17:08;11.73;;;8.30;;
8151;SDS011;4117;53.622;9.958;2024-02-15T15:19:37;12.40;;;8.40;;
8151;SDS011;4117;53.622;9.958;2024-02-15T15:22:04;9.97;;;7.37;;